Time;durP1;ratioP1;P1;durP2;ratioP2;P2;SDS_P1;SDS_P2;PMS_P1;PMS_P2;Temp;Humidity;BMP_temperature;BMP_pressure;BME280_temperature;BME280_humidity;BME280_pressure;Samples;Min_cycle;Max_cycle;Signal;HPM_P1;HPM_P2
2021/12/27 00:00:12;;;;;;;3.50;3.20;;;18.80;44.80;;;;;;5033604;28;20215;-73
2021/12/27 00:02:40;;;;;;;3.30;3.10;;;18.80;44.80;;;;;;5034081;28;20195;-71
2021/12/27 00:05:09;;;;;;;3.33;3.08;;;18.80;44.90;;;;;;5032210;28;20250;-72
2021/12/27 00:07:36;;;;;;;3.40;3.10;;;18.70;44.90;;;;;;5033352;28;20208;-70
2021/12/27 00:10:03;;;;;;;3.53;3.22;;;18.70;44.90;;;;;;5015769;28;20667;-71
2021/12/27 00:12:30;;;;;;;3.33;3.03;;;18.70;45.00;;;;;;5032322;28;20216;-72
2021/12/27 00:14:57;;;;;;;3.50;3.20;;;18.70;45.00;;;;;;5015747;28;20196;-72
2021/12/27 00:17:24;;;;;;;3.40;3.20;;;18.70;45.10;;;;;;5016865;28;20720;-73
2021/12/27 00:19:51;;;;;;;3.30;3.10;;;18.70;45.70;;;;;;5016060;28;20250;-72
2021/12/27 00:22:19;;;;;;;3.47;3.25;;;18.70;45.10;;;;;;5033628;28;20192;-72
2021/12/27 00:24:47;;;;;;;3.65;3.35;;;18.60;45.10;;;;;;5015786;28;20246;-73
2021/12/27 00:27:15;;;;;;;3.63;3.33;;;18.70;45.10;;;;;;5015655;28;20207;-73
2021/12/27 00:29:42;;;;;;;3.33;3.10;;;18.60;45.10;;;;;;5038267;28;20188;-70
2021/12/27 00:32:10;;;;;;;3.95;3.55;;;18.60;45.00;;;;;;5044658;28;20220;-73
2021/12/27 00:34:37;;;;;;;3.42;3.22;;;18.60;45.10;;;;;;5036963;28;20255;-73
2021/12/27 00:37:05;;;;;;;3.78;3.50;;;18.60;45.20;;;;;;5037560;28;20216;-72
2021/12/27 00:39:34;;;;;;;3.30;3.00;;;18.60;45.20;;;;;;5036201;28;20195;-71
2021/12/27 00:42:01;;;;;;;3.60;3.40;;;18.60;45.20;;;;;;5019998;28;20220;-72
2021/12/27 00:44:30;;;;;;;3.10;2.80;;;18.60;45.20;;;;;;5038048;28;20291;-73
2021/12/27 00:46:58;;;;;;;3.53;3.13;;;18.60;45.30;;;;;;5019844;28;20224;-74
2021/12/27 00:49:25;;;;;;;3.70;3.20;;;18.50;45.20;;;;;;5043072;28;20199;-72
2021/12/27 00:51:53;;;;;;;3.95;3.65;;;18.50;45.20;;;;;;5026947;28;20262;-72
2021/12/27 00:54:20;;;;;;;3.53;3.22;;;18.50;45.30;;;;;;5049527;28;20223;-73
2021/12/27 00:56:49;;;;;;;3.35;3.13;;;18.50;45.30;;;;;;5036275;28;20250;-73
2021/12/27 00:59:16;;;;;;;3.30;3.10;;;18.50;45.30;;;;;;5044749;28;20227;-72
2021/12/27 01:01:43;;;;;;;3.63;3.33;;;18.50;45.40;;;;;;5033221;28;20259;-74
2021/12/27 01:04:13;;;;;;;3.42;3.13;;;18.40;45.30;;;;;;5046391;28;20294;-74
2021/12/27 01:06:40;;;;;;;3.63;3.22;;;18.40;45.40;;;;;;5023706;28;20246;-74
2021/12/27 01:09:08;;;;;;;3.60;3.30;;;18.40;45.40;;;;;;5020938;28;20196;-73
2021/12/27 01:11:46;;;;;;;3.47;3.28;;;18.40;45.40;;;;;;5039545;28;20208;-71
2021/12/27 01:14:26;;;;;;;3.47;3.17;;;18.40;45.50;;;;;;5020888;28;20203;-74
2021/12/27 01:16:54;;;;;;;3.58;3.28;;;18.40;45.50;;;;;;5020463;28;20228;-72
2021/12/27 01:19:20;;;;;;;3.47;3.17;;;18.40;45.50;;;;;;5020072;28;20573;-71
2021/12/27 01:21:47;;;;;;;3.50;3.20;;;18.40;45.50;;;;;;5020649;28;20207;-74
2021/12/27 01:24:15;;;;;;;3.30;3.00;;;18.40;45.60;;;;;;5019807;28;20254;-73
2021/12/27 01:26:43;;;;;;;3.70;3.40;;;18.30;46.10;;;;;;5019866;28;20716;-73
2021/12/27 01:29:11;;;;;;;3.78;3.47;;;18.30;45.50;;;;;;5019763;28;20219;-72
2021/12/27 01:31:39;;;;;;;3.58;3.33;;;18.30;45.60;;;;;;5019418;28;20288;-74
2021/12/27 01:34:07;;;;;;;3.60;3.30;;;18.30;45.50;;;;;;5019041;28;20196;-73
2021/12/27 01:36:34;;;;;;;3.17;2.95;;;18.30;45.50;;;;;;5019118;28;20222;-72
2021/12/27 01:39:01;;;;;;;3.40;3.10;;;18.30;45.60;;;;;;5019286;28;20287;-72
2021/12/27 01:41:28;;;;;;;3.40;3.10;;;18.30;45.60;;;;;;5017611;28;20200;-72
2021/12/27 01:43:56;;;;;;;3.53;3.22;;;18.20;45.50;;;;;;5018798;28;20212;-72
2021/12/27 01:46:24;;;;;;;3.50;3.22;;;18.20;45.60;;;;;;5018827;28;20251;-71
2021/12/27 01:48:56;;;;;;;3.50;3.20;;;18.20;45.70;;;;;;5019017;28;20196;-72
2021/12/27 01:51:24;;;;;;;3.70;3.38;;;18.20;45.60;;;;;;5018561;28;20217;-72
2021/12/27 01:53:51;;;;;;;3.08;2.78;;;18.20;45.70;;;;;;5018552;28;20191;-73
2021/12/27 01:56:20;;;;;;;3.22;3.03;;;18.20;45.60;;;;;;5036332;28;20208;-71
2021/12/27 01:58:48;;;;;;;3.00;2.80;;;18.20;45.70;;;;;;5034960;28;20278;-73
2021/12/27 02:01:15;;;;;;;3.75;3.20;;;18.20;45.70;;;;;;5034682;28;20304;-72
2021/12/27 02:03:43;;;;;;;4.13;3.05;;;18.10;45.60;;;;;;5018223;28;20246;-73
2021/12/27 02:06:12;;;;;;;3.45;3.15;;;18.10;45.60;;;;;;5035983;28;20270;-74
2021/12/27 02:08:41;;;;;;;3.30;3.10;;;18.10;45.60;;;;;;5018270;28;20203;-73
2021/12/27 02:11:10;;;;;;;3.50;3.22;;;18.10;45.70;;;;;;5017723;28;20196;-74
2021/12/27 02:13:42;;;;;;;3.33;3.03;;;18.10;45.70;;;;;;5017759;28;20242;-73
2021/12/27 02:16:09;;;;;;;3.10;2.90;;;18.10;45.70;;;;;;5035745;28;20226;-73
2021/12/27 02:18:37;;;;;;;3.42;2.80;;;18.10;45.70;;;;;;5035690;28;20299;-71
2021/12/27 02:21:07;;;;;;;3.40;3.08;;;18.10;45.70;;;;;;5017871;28;20214;-74
2021/12/27 02:23:34;;;;;;;2.95;2.75;;;18.10;45.70;;;;;;5035550;28;20181;-73
2021/12/27 02:26:02;;;;;;;3.22;3.00;;;18.00;45.70;;;;;;5017481;28;20239;-74
2021/12/27 02:28:29;;;;;;;3.10;2.90;;;18.10;45.80;;;;;;5017726;28;20207;-72
2021/12/27 02:30:56;;;;;;;3.08;2.88;;;18.00;45.70;;;;;;5017640;28;20204;-71
2021/12/27 02:33:23;;;;;;;2.90;2.70;;;18.00;45.80;;;;;;5034070;28;20238;-72
2021/12/27 02:35:55;;;;;;;3.55;2.60;;;18.00;45.70;;;;;;5017276;28;20326;-72
2021/12/27 02:38:24;;;;;;;3.63;3.10;;;18.00;45.80;;;;;;5033742;28;20238;-74
2021/12/27 02:40:52;;;;;;;3.08;2.80;;;18.00;45.80;;;;;;5035631;28;20189;-73
2021/12/27 02:43:19;;;;;;;3.03;2.70;;;18.00;45.80;;;;;;5019258;28;20246;-73
2021/12/27 02:45:48;;;;;;;2.85;2.67;;;17.90;45.80;;;;;;5019760;28;20208;-72
2021/12/27 02:48:15;;;;;;;3.08;2.88;;;18.00;45.80;;;;;;5019356;28;20641;-73
2021/12/27 02:50:43;;;;;;;2.90;2.70;;;17.90;45.80;;;;;;5018282;28;20196;-73
2021/12/27 02:53:11;;;;;;;2.70;2.50;;;17.90;45.80;;;;;;5017507;28;20220;-71
2021/12/27 02:55:40;;;;;;;3.15;2.83;;;17.90;45.80;;;;;;5034257;28;20200;-71
2021/12/27 02:58:08;;;;;;;2.67;2.47;;;17.90;45.90;;;;;;5017703;28;20569;-72
2021/12/27 03:00:36;;;;;;;2.60;2.40;;;17.90;45.90;;;;;;5017745;28;20250;-73
2021/12/27 03:03:04;;;;;;;2.83;2.60;;;17.90;45.90;;;;;;5017933;28;20698;-73
2021/12/27 03:05:31;;;;;;;2.90;2.70;;;17.90;45.90;;;;;;5034643;28;20192;-72
2021/12/27 03:08:06;;;;;;;2.35;2.25;;;17.80;45.80;;;;;;5019494;28;20224;-72
2021/12/27 03:10:34;;;;;;;2.58;2.45;;;17.80;45.80;;;;;;5020693;28;20682;-71
2021/12/27 03:13:03;;;;;;;3.22;2.63;;;17.80;45.80;;;;;;5018324;28;20262;-72
2021/12/27 03:15:30;;;;;;;3.10;2.80;;;17.80;45.80;;;;;;5019692;28;20290;-72
2021/12/27 03:17:58;;;;;;;2.35;2.25;;;17.80;45.90;;;;;;5017257;28;20231;-71
2021/12/27 03:20:26;;;;;;;2.60;2.40;;;17.80;46.00;;;;;;5033222;28;20259;-72
2021/12/27 03:22:54;;;;;;;2.60;2.40;;;17.80;45.90;;;;;;5017037;28;20639;-72
2021/12/27 03:25:23;;;;;;;2.75;2.55;;;17.80;46.00;;;;;;5015999;28;20203;-72
2021/12/27 03:27:50;;;;;;;2.75;2.38;;;17.80;46.00;;;;;;5033921;28;20207;-72
2021/12/27 03:30:21;;;;;;;2.78;2.58;;;17.80;45.90;;;;;;5016234;28;20192;-74
2021/12/27 03:32:48;;;;;;;2.70;2.55;;;17.80;46.00;;;;;;5032848;28;20228;-73
2021/12/27 03:35:18;;;;;;;2.70;2.50;;;17.80;46.00;;;;;;5032834;28;20196;-72
2021/12/27 03:37:47;;;;;;;2.80;2.60;;;17.70;45.90;;;;;;5016916;28;20290;-73
2021/12/27 03:40:15;;;;;;;2.65;2.45;;;17.80;46.00;;;;;;5033485;28;20200;-73
2021/12/27 03:42:42;;;;;;;2.80;2.60;;;17.70;46.00;;;;;;5016545;28;20547;-72
2021/12/27 03:45:10;;;;;;;2.53;2.33;;;17.70;45.90;;;;;;5017098;28;20210;-73
2021/12/27 03:47:39;;;;;;;2.90;2.70;;;17.70;46.00;;;;;;5032763;28;20623;-72
2021/12/27 03:50:06;;;;;;;2.70;2.50;;;17.70;46.00;;;;;;5015454;28;20231;-71
2021/12/27 03:52:33;;;;;;;2.60;2.40;;;17.70;45.90;;;;;;5032936;28;20345;-72
2021/12/27 03:55:00;;;;;;;2.40;2.30;;;17.70;46.00;;;;;;5015597;28;20568;-72
2021/12/27 03:57:27;;;;;;;2.83;2.63;;;17.70;46.10;;;;;;5031632;28;20589;-73
2021/12/27 04:00:15;;;;;;;2.70;2.50;;;17.70;46.10;;;;;;5015385;28;20210;-73
2021/12/27 04:02:44;;;;;;;2.45;2.30;;;17.70;46.10;;;;;;5033421;28;20246;-72
2021/12/27 04:05:11;;;;;;;3.00;2.58;;;17.70;46.00;;;;;;5014241;28;20207;-71
2021/12/27 04:07:39;;;;;;;2.50;2.40;;;17.70;46.10;;;;;;5031475;28;20231;-73
2021/12/27 04:10:09;;;;;;;2.53;2.38;;;17.70;46.10;;;;;;5031449;28;20250;-71
2021/12/27 04:12:37;;;;;;;2.67;2.47;;;17.70;46.20;;;;;;5032681;28;20204;-72
2021/12/27 04:15:05;;;;;;;2.75;2.55;;;17.60;46.10;;;;;;5015199;28;20244;-72
2021/12/27 04:17:31;;;;;;;2.80;2.60;;;17.70;46.20;;;;;;5032772;28;20215;-72
2021/12/27 04:20:00;;;;;;;2.40;2.30;;;17.70;46.20;;;;;;5031575;28;20211;-73
2021/12/27 04:22:27;;;;;;;2.40;2.20;;;17.60;46.10;;;;;;5032820;28;20188;-72
2021/12/27 04:24:54;;;;;;;2.53;2.33;;;17.70;46.10;;;;;;5015694;28;20199;-73
2021/12/27 04:27:21;;;;;;;2.85;2.40;;;17.60;46.00;;;;;;5015700;28;20211;-71
2021/12/27 04:29:49;;;;;;;3.17;2.97;;;17.70;46.00;;;;;;5015348;28;20283;-71
2021/12/27 04:32:15;;;;;;;2.70;2.50;;;17.70;46.00;;;;;;5032021;28;20612;-73
2021/12/27 04:34:43;;;;;;;2.50;2.30;;;17.70;46.00;;;;;;5016003;28;20580;-71
2021/12/27 04:37:11;;;;;;;2.60;2.40;;;17.70;45.90;;;;;;5015441;28;20403;-72
2021/12/27 04:39:39;;;;;;;3.17;2.97;;;17.70;45.80;;;;;;5015181;28;20231;-73
2021/12/27 04:42:07;;;;;;;2.72;2.53;;;17.70;45.80;;;;;;5015116;28;20200;-72
2021/12/27 04:44:34;;;;;;;2.60;2.40;;;17.70;45.80;;;;;;5015154;28;20195;-72
2021/12/27 04:47:01;;;;;;;3.28;2.33;;;17.80;45.80;;;;;;5031448;28;20220;-73
2021/12/27 04:49:30;;;;;;;2.67;2.50;;;17.80;45.70;;;;;;5014887;28;20545;-72
2021/12/27 04:51:56;;;;;;;2.65;2.45;;;17.80;45.60;;;;;;5032613;28;20192;-72
2021/12/27 04:54:25;;;;;;;3.10;2.90;;;17.80;45.60;;;;;;5032125;28;20683;-72
2021/12/27 04:56:52;;;;;;;3.00;2.80;;;17.80;45.60;;;;;;5014659;28;20230;-73
2021/12/27 04:59:20;;;;;;;3.20;3.00;;;17.80;45.60;;;;;;5014705;28;20573;-73
2021/12/27 05:01:47;;;;;;;3.47;2.70;;;17.80;45.60;;;;;;5014500;28;20735;-73
2021/12/27 05:04:15;;;;;;;3.13;2.92;;;17.90;45.60;;;;;;5031112;28;20251;-72
2021/12/27 05:06:42;;;;;;;3.30;3.00;;;17.90;45.60;;;;;;5014662;28;20692;-73
2021/12/27 05:09:11;;;;;;;2.72;2.53;;;17.80;45.50;;;;;;5014631;28;20261;-74
2021/12/27 05:11:40;;;;;;;2.95;2.75;;;17.90;45.60;;;;;;5014433;28;20270;-73
2021/12/27 05:14:07;;;;;;;3.30;3.00;;;17.90;46.00;;;;;;5032042;28;20204;-71
2021/12/27 05:16:35;;;;;;;4.07;2.95;;;17.90;46.30;;;;;;5033755;28;20235;-74
2021/12/27 05:19:02;;;;;;;5.47;3.28;;;17.90;46.20;;;;;;5018232;28;20243;-72
2021/12/27 05:21:28;;;;;;;3.95;3.60;;;18.00;46.70;;;;;;5034566;28;20252;-72
2021/12/27 05:23:55;;;;;;;5.80;4.20;;;18.00;47.10;;;;;;5017750;28;20192;-70
2021/12/27 05:26:23;;;;;;;6.30;4.10;;;18.00;47.30;;;;;;5035673;28;20220;-71
2021/12/27 05:28:52;;;;;;;4.20;3.80;;;18.00;46.60;;;;;;5035502;28;20370;-72
2021/12/27 05:31:19;;;;;;;6.13;3.63;;;18.00;47.00;;;;;;5035035;28;20204;-70
2021/12/27 05:33:46;;;;;;;4.65;3.72;;;18.10;46.80;;;;;;5017573;28;20219;-73
2021/12/27 05:36:13;;;;;;;3.78;3.17;;;18.10;46.80;;;;;;5034010;28;20220;-71
2021/12/27 05:38:40;;;;;;;6.25;3.17;;;18.10;47.00;;;;;;5017944;28;20231;-73
2021/12/27 05:41:07;;;;;;;3.55;2.92;;;18.10;47.20;;;;;;5017824;28;20291;-72
2021/12/27 05:43:34;;;;;;;3.17;2.88;;;18.10;47.10;;;;;;5035303;28;20184;-72
2021/12/27 05:46:03;;;;;;;3.70;3.13;;;18.20;47.40;;;;;;5034975;28;20765;-74
2021/12/27 05:48:30;;;;;;;3.60;3.30;;;18.20;47.10;;;;;;5017239;28;20196;-70
2021/12/27 05:50:57;;;;;;;4.65;3.35;;;18.20;47.20;;;;;;5017421;28;20258;-73
2021/12/27 05:53:24;;;;;;;8.13;3.95;;;18.20;47.50;;;;;;5035175;28;20604;-71
2021/12/27 05:55:51;;;;;;;3.20;2.90;;;18.20;47.50;;;;;;5017145;28;20193;-72
2021/12/27 05:58:18;;;;;;;3.08;2.88;;;18.30;47.70;;;;;;5036115;28;20212;-73
2021/12/27 06:00:47;;;;;;;4.03;3.17;;;18.30;46.20;;;;;;5017145;28;20208;-73
2021/12/27 06:03:16;;;;;;;4.07;3.67;;;18.30;45.80;;;;;;5018045;28;20223;-75
2021/12/27 06:05:43;;;;;;;3.50;3.05;;;18.30;45.70;;;;;;5017083;28;20200;-72
2021/12/27 06:08:10;;;;;;;4.53;3.22;;;18.30;46.10;;;;;;5035279;28;20187;-72
2021/12/27 06:10:37;;;;;;;3.75;3.40;;;18.30;45.70;;;;;;5016745;28;20196;-72
2021/12/27 06:13:05;;;;;;;3.50;2.83;;;18.30;45.70;;;;;;5033713;28;20204;-73
2021/12/27 06:15:32;;;;;;;5.75;2.90;;;18.30;45.50;;;;;;5017301;28;20224;-73
2021/12/27 06:17:59;;;;;;;3.10;2.90;;;18.30;45.50;;;;;;5018088;28;20235;-73
2021/12/27 06:20:28;;;;;;;5.18;2.97;;;18.30;45.50;;;;;;5017091;28;20200;-71
2021/12/27 06:22:56;;;;;;;3.72;2.95;;;18.30;45.40;;;;;;5016769;28;20258;-72
2021/12/27 06:25:23;;;;;;;7.78;4.80;;;18.30;45.30;;;;;;5016768;28;20558;-74
2021/12/27 06:27:51;;;;;;;5.63;4.03;;;18.30;45.30;;;;;;5015961;28;20226;-71
2021/12/27 06:30:18;;;;;;;5.47;3.20;;;18.40;45.30;;;;;;5033039;28;20303;-72
2021/12/27 06:32:45;;;;;;;5.30;3.83;;;18.40;45.30;;;;;;5032897;28;20199;-73
2021/12/27 06:35:13;;;;;;;4.25;3.85;;;18.30;45.30;;;;;;5016426;28;20692;-73
2021/12/27 06:37:42;;;;;;;4.63;3.50;;;18.30;45.50;;;;;;5016439;28;20314;-71
2021/12/27 06:40:10;;;;;;;3.90;3.33;;;18.40;45.60;;;;;;5034184;28;20199;-72
2021/12/27 06:42:38;;;;;;;3.63;3.33;;;18.40;45.60;;;;;;5016313;28;20664;-72
2021/12/27 06:45:05;;;;;;;4.88;3.60;;;18.40;45.50;;;;;;5032738;28;20215;-72
2021/12/27 06:47:32;;;;;;;6.88;4.00;;;18.40;45.40;;;;;;5016858;28;20227;-71
2021/12/27 06:50:00;;;;;;;5.65;3.67;;;18.40;45.20;;;;;;5032799;28;20195;-71
2021/12/27 06:52:27;;;;;;;4.70;3.85;;;18.40;45.30;;;;;;5033970;28;20656;-73
2021/12/27 06:54:55;;;;;;;4.32;3.92;;;18.40;45.10;;;;;;5015997;28;20692;-70
2021/12/27 06:57:22;;;;;;;5.15;3.58;;;18.40;45.00;;;;;;5016044;28;20220;-69
2021/12/27 06:59:49;;;;;;;3.83;3.47;;;18.40;44.60;;;;;;5015931;28;20196;-73
2021/12/27 07:02:16;;;;;;;3.00;2.70;;;18.40;44.60;;;;;;5016034;28;20293;-71
2021/12/27 07:04:43;;;;;;;4.13;3.25;;;18.40;44.60;;;;;;5016210;28;20198;-71
2021/12/27 07:07:11;;;;;;;3.85;3.10;;;18.40;44.50;;;;;;5016306;28;20722;-71
2021/12/27 07:09:38;;;;;;;3.03;2.83;;;18.40;44.50;;;;;;5032548;28;20226;-73
2021/12/27 07:12:08;;;;;;;3.10;2.80;;;18.40;44.50;;;;;;5016223;28;20212;-72
2021/12/27 07:14:34;;;;;;;3.10;2.90;;;18.30;44.40;;;;;;5032254;28;20220;-72
2021/12/27 07:17:02;;;;;;;3.22;2.85;;;18.30;44.40;;;;;;5016403;28;20630;-73
2021/12/27 07:19:29;;;;;;;3.28;2.88;;;18.30;44.40;;;;;;5032984;28;20206;-73
2021/12/27 07:21:56;;;;;;;2.85;2.63;;;18.40;44.50;;;;;;5033157;28;20203;-70
2021/12/27 07:24:23;;;;;;;3.08;2.78;;;18.30;44.40;;;;;;5033107;28;20542;-71
2021/12/27 07:26:52;;;;;;;3.10;2.80;;;18.30;44.40;;;;;;5016011;28;20223;-72
2021/12/27 07:29:21;;;;;;;3.28;2.97;;;18.30;44.40;;;;;;5015676;28;20196;-73
2021/12/27 07:31:48;;;;;;;3.00;2.70;;;18.30;44.40;;;;;;5015735;28;20204;-73
2021/12/27 07:34:17;;;;;;;2.92;2.72;;;18.30;44.40;;;;;;5015895;28;20630;-71
2021/12/27 07:36:45;;;;;;;7.03;5.55;;;18.30;44.40;;;;;;5015311;28;20228;-73
2021/12/27 07:39:12;;;;;;;3.53;3.22;;;18.30;44.10;;;;;;5015314;28;20286;-72
2021/12/27 07:41:39;;;;;;;3.05;2.78;;;18.40;44.30;;;;;;5031873;28;20248;-71
2021/12/27 07:44:08;;;;;;;2.95;2.63;;;18.30;44.20;;;;;;5015402;28;20200;-70
2021/12/27 07:46:40;;;;;;;3.00;2.80;;;18.40;44.40;;;;;;5033312;28;20208;-71
2021/12/27 07:49:08;;;;;;;4.07;3.05;;;18.30;44.20;;;;;;5015217;28;20258;-71
2021/12/27 07:51:34;;;;;;;3.40;3.10;;;18.40;44.40;;;;;;5031558;28;20223;-71
2021/12/27 07:54:01;;;;;;;5.30;3.30;;;18.40;44.20;;;;;;5015136;28;20680;-72
2021/12/27 07:56:29;;;;;;;6.90;3.50;;;18.40;44.30;;;;;;5014848;28;20219;-71
2021/12/27 07:58:56;;;;;;;4.18;3.55;;;18.40;44.40;;;;;;5031694;28;20198;-72
2021/12/27 08:01:24;;;;;;;3.83;3.42;;;18.40;44.40;;;;;;5014959;28;20204;-73
2021/12/27 08:03:53;;;;;;;6.25;3.60;;;18.40;44.40;;;;;;5015346;28;20191;-72
2021/12/27 08:06:20;;;;;;;5.53;3.53;;;18.50;44.40;;;;;;5031349;28;20215;-72
2021/12/27 08:08:47;;;;;;;4.55;4.13;;;18.50;44.60;;;;;;5031623;28;20207;-72
2021/12/27 08:11:14;;;;;;;6.25;4.03;;;18.50;44.40;;;;;;5031832;28;20197;-73
2021/12/27 08:13:42;;;;;;;6.13;4.05;;;18.50;44.30;;;;;;5015253;28;20732;-70
2021/12/27 08:16:09;;;;;;;5.43;4.22;;;18.50;44.20;;;;;;5015145;28;20842;-72
2021/12/27 08:18:36;;;;;;;4.00;3.58;;;18.50;43.90;;;;;;5015481;28;20203;-71
2021/12/27 08:21:07;;;;;;;3.38;3.08;;;18.50;44.00;;;;;;5015263;28;20238;-73
2021/12/27 08:23:36;;;;;;;4.88;3.53;;;18.50;44.00;;;;;;5032261;28;20287;-72
2021/12/27 08:26:04;;;;;;;5.60;3.88;;;18.60;43.80;;;;;;5015675;28;20223;-72
2021/12/27 08:28:31;;;;;;;5.38;4.03;;;18.60;43.90;;;;;;5015437;28;20200;-71
2021/12/27 08:30:58;;;;;;;5.75;4.18;;;18.60;43.80;;;;;;5031746;28;20319;-71
2021/12/27 08:33:28;;;;;;;6.68;4.65;;;18.60;45.70;;;;;;5033240;28;20198;-71
2021/12/27 08:35:55;;;;;;;5.43;4.00;;;18.60;48.60;;;;;;5015230;28;20239;-71
2021/12/27 08:38:24;;;;;;;4.93;4.10;;;18.60;47.30;;;;;;5015219;28;20229;-72
2021/12/27 08:40:51;;;;;;;4.18;3.38;;;18.60;46.90;;;;;;5015330;28;20196;-70
2021/12/27 08:43:18;;;;;;;5.10;4.40;;;18.70;46.60;;;;;;5032771;28;20196;-70
2021/12/27 08:45:45;;;;;;;5.15;4.65;;;18.80;46.30;;;;;;5015171;28;20570;-73
2021/12/27 08:48:13;;;;;;;6.18;4.30;;;18.80;46.10;;;;;;5015263;28;20196;-71
2021/12/27 08:50:41;;;;;;;4.68;3.40;;;18.80;45.80;;;;;;5016245;28;20196;-73
2021/12/27 08:53:09;;;;;;;5.45;4.10;;;18.80;45.50;;;;;;5018820;28;20196;-72
2021/12/27 08:55:39;;;;;;;4.72;3.78;;;18.80;45.30;;;;;;5036975;28;20256;-71
2021/12/27 08:58:06;;;;;;;3.97;3.58;;;18.80;45.00;;;;;;5035686;28;20204;-71
2021/12/27 09:00:33;;;;;;;4.63;3.80;;;18.90;44.90;;;;;;5018770;28;20291;-70
2021/12/27 09:03:00;;;;;;;5.13;3.90;;;18.80;44.90;;;;;;5035070;28;20196;-71
2021/12/27 09:05:28;;;;;;;5.53;4.32;;;18.80;44.80;;;;;;5018756;28;20193;-73
2021/12/27 09:07:55;;;;;;;4.53;4.03;;;18.80;44.80;;;;;;5018429;28;20220;-73
2021/12/27 09:10:22;;;;;;;4.10;3.70;;;18.80;44.80;;;;;;5018478;28;20295;-71
2021/12/27 09:12:51;;;;;;;4.43;3.53;;;18.80;44.60;;;;;;5018676;28;20211;-72
2021/12/27 09:15:18;;;;;;;4.32;3.92;;;18.80;44.40;;;;;;5036168;28;20692;-71
2021/12/27 09:17:45;;;;;;;3.92;3.60;;;18.80;44.60;;;;;;5018019;28;20224;-72
2021/12/27 09:20:13;;;;;;;3.70;3.40;;;18.90;44.70;;;;;;5018584;28;20618;-71
2021/12/27 09:22:40;;;;;;;3.53;3.22;;;18.90;44.60;;;;;;5035036;28;20200;-73
2021/12/27 09:25:08;;;;;;;3.30;3.00;;;18.90;44.40;;;;;;5035791;28;20199;-72
2021/12/27 09:27:35;;;;;;;3.72;3.35;;;18.80;44.20;;;;;;5035787;28;20212;-70
2021/12/27 09:30:05;;;;;;;3.92;3.50;;;18.90;44.20;;;;;;5018324;28;20294;-73
2021/12/27 09:32:32;;;;;;;3.50;3.20;;;18.90;44.20;;;;;;5018519;28;20207;-70
2021/12/27 09:35:00;;;;;;;3.65;3.35;;;18.80;44.80;;;;;;5018154;28;20224;-73
2021/12/27 09:37:27;;;;;;;3.97;3.20;;;18.90;44.20;;;;;;5018033;28;20589;-72
2021/12/27 09:39:54;;;;;;;4.13;3.60;;;18.90;44.10;;;;;;5018614;28;20200;-72
2021/12/27 09:42:22;;;;;;;4.90;3.58;;;18.80;44.10;;;;;;5034514;28;20208;-72
2021/12/27 09:44:50;;;;;;;3.33;3.03;;;18.90;44.00;;;;;;5017948;28;20218;-72
2021/12/27 09:47:18;;;;;;;3.72;3.25;;;18.90;44.20;;;;;;5017723;28;20226;-71
2021/12/27 09:49:45;;;;;;;3.83;3.53;;;18.90;44.10;;;;;;5034165;28;20779;-73
2021/12/27 09:52:13;;;;;;;3.50;3.20;;;18.90;44.20;;;;;;5017848;28;20565;-74
2021/12/27 09:54:40;;;;;;;3.78;3.47;;;18.90;44.20;;;;;;5035615;28;20222;-74
2021/12/27 09:57:08;;;;;;;3.88;3.50;;;18.90;44.00;;;;;;5036167;28;20231;-72
2021/12/27 09:59:35;;;;;;;3.70;3.40;;;19.00;44.10;;;;;;5035751;28;20200;-72
2021/12/27 10:02:01;;;;;;;3.97;3.58;;;19.00;44.10;;;;;;5016811;28;20196;-74
2021/12/27 10:04:30;;;;;;;3.78;3.47;;;19.00;44.00;;;;;;5018129;28;20188;-72
2021/12/27 10:06:57;;;;;;;3.50;3.20;;;19.00;43.90;;;;;;5036207;28;20222;-73
2021/12/27 10:09:24;;;;;;;3.83;3.42;;;19.00;43.90;;;;;;5018342;28;20664;-74
2021/12/27 10:11:52;;;;;;;3.55;3.25;;;19.00;43.90;;;;;;5035004;28;20192;-76
2021/12/27 10:14:19;;;;;;;4.63;3.50;;;19.00;43.90;;;;;;5026023;28;20215;-72
2021/12/27 10:16:50;;;;;;;3.58;3.28;;;19.00;43.90;;;;;;5037112;28;20718;-72
2021/12/27 10:19:18;;;;;;;4.65;3.55;;;19.00;43.80;;;;;;5038406;28;20180;-72
2021/12/27 10:21:48;;;;;;;3.60;3.30;;;19.00;43.80;;;;;;5019591;28;20727;-73
2021/12/27 10:24:16;;;;;;;3.55;3.25;;;19.10;43.80;;;;;;5019080;28;20220;-73
2021/12/27 10:26:44;;;;;;;3.63;3.33;;;19.10;43.90;;;;;;5018965;28;20231;-73
2021/12/27 10:29:14;;;;;;;3.47;3.20;;;19.10;43.90;;;;;;5018293;28;20199;-73
2021/12/27 10:31:55;;;;;;;3.65;3.35;;;19.10;43.80;;;;;;5018079;28;20196;-71
2021/12/27 10:34:22;;;;;;;3.53;3.22;;;19.10;43.80;;;;;;5018073;28;20196;-73
2021/12/27 10:37:06;;;;;;;3.15;2.92;;;19.10;43.80;;;;;;5034692;28;20224;-74
2021/12/27 10:39:50;;;;;;;3.60;3.30;;;19.10;43.80;;;;;;5018199;28;20248;-73
2021/12/27 10:42:18;;;;;;;3.30;3.00;;;19.10;43.80;;;;;;5017870;28;20188;-73
2021/12/27 10:44:45;;;;;;;3.35;3.05;;;19.10;43.80;;;;;;5034173;28;20711;-72
2021/12/27 10:47:43;;;;;;;3.30;3.00;;;19.10;43.80;;;;;;5035532;28;20208;-72
2021/12/27 10:50:13;;;;;;;3.50;3.20;;;19.20;43.80;;;;;;4955273;29;20215;-73
2021/12/27 10:52:49;;;;;;;3.47;3.17;;;19.20;43.80;;;;;;5000925;28;20200;-71
2021/12/27 10:55:19;;;;;;;3.53;3.22;;;19.10;43.80;;;;;;5034985;28;20611;-70
2021/12/27 10:57:49;;;;;;;3.33;3.13;;;19.20;44.40;;;;;;5018020;28;20297;-72
2021/12/27 11:00:37;;;;;;;3.25;2.95;;;19.20;43.80;;;;;;5017646;28;20199;-72
2021/12/27 11:03:05;;;;;;;4.38;3.20;;;19.20;43.80;;;;;;5029266;28;20197;-73
2021/12/27 11:05:34;;;;;;;3.65;3.35;;;19.20;43.80;;;;;;5017768;28;20259;-72
2021/12/27 11:08:05;;;;;;;3.22;2.92;;;19.20;44.40;;;;;;5017781;28;20699;-71
2021/12/27 11:10:34;;;;;;;4.03;3.28;;;19.20;43.80;;;;;;5017034;28;20703;-71
2021/12/27 11:13:03;;;;;;;3.42;3.13;;;19.20;44.40;;;;;;5016560;28;20208;-72
2021/12/27 11:15:31;;;;;;;3.20;2.90;;;19.20;43.70;;;;;;5034625;28;20219;-70
2021/12/27 11:17:58;;;;;;;3.00;2.72;;;19.30;43.80;;;;;;5034389;28;20220;-72
2021/12/27 11:20:26;;;;;;;2.97;2.78;;;19.30;43.80;;;;;;5016599;28;20196;-73
2021/12/27 11:22:54;;;;;;;3.28;2.97;;;19.40;43.80;;;;;;5034270;28;20684;-71
2021/12/27 11:25:30;;;;;;;2.90;2.70;;;19.30;43.80;;;;;;5016369;28;20204;-70
2021/12/27 11:27:58;;;;;;;3.50;3.20;;;19.40;43.80;;;;;;5032615;28;20228;-72
2021/12/27 11:30:26;;;;;;;3.35;3.00;;;19.40;43.80;;;;;;5016174;28;20648;-71
2021/12/27 11:33:04;;;;;;;3.00;2.80;;;19.40;43.80;;;;;;5032448;28;20196;-71
2021/12/27 11:35:33;;;;;;;3.40;3.10;;;19.40;43.80;;;;;;5033645;28;20219;-71
2021/12/27 11:38:02;;;;;;;3.10;2.90;;;19.40;43.90;;;;;;5015749;28;20719;-73
2021/12/27 11:40:41;;;;;;;4.18;2.72;;;19.40;43.80;;;;;;5016175;28;20200;-72
2021/12/27 11:43:09;;;;;;;3.13;2.88;;;19.40;43.80;;;;;;5015857;28;20198;-72
2021/12/27 11:45:41;;;;;;;3.00;2.80;;;19.40;43.80;;;;;;5015495;28;20188;-73
2021/12/27 11:48:09;;;;;;;3.13;2.92;;;19.40;43.70;;;;;;5015650;28;20196;-70
2021/12/27 11:51:04;;;;;;;2.90;2.70;;;19.40;43.70;;;;;;5015705;28;20231;-73
2021/12/27 11:53:34;;;;;;;3.30;3.00;;;19.40;43.70;;;;;;5033552;28;20192;-73
2021/12/27 11:56:08;;;;;;;3.22;2.95;;;19.50;43.70;;;;;;5015627;28;20231;-72
2021/12/27 11:58:36;;;;;;;3.03;2.83;;;19.50;43.70;;;;;;5015468;28;20196;-73
2021/12/27 12:01:03;;;;;;;2.97;2.78;;;19.50;43.70;;;;;;5033195;28;20191;-72
2021/12/27 12:03:40;;;;;;;3.33;3.00;;;19.50;43.70;;;;;;5031737;28;20231;-71
2021/12/27 12:06:07;;;;;;;2.80;2.60;;;19.50;43.60;;;;;;5032886;28;20235;-72
2021/12/27 12:08:52;;;;;;;2.75;2.55;;;19.50;43.50;;;;;;5031850;28;20203;-72
2021/12/27 12:11:30;;;;;;;3.05;2.78;;;19.60;43.60;;;;;;5015510;28;20215;-72
2021/12/27 12:13:59;;;;;;;2.85;2.65;;;19.60;43.50;;;;;;5015522;28;20648;-73
2021/12/27 12:16:28;;;;;;;3.03;2.80;;;19.60;43.50;;;;;;5015688;28;20264;-73
2021/12/27 12:19:09;;;;;;;2.88;2.67;;;19.60;43.40;;;;;;5017399;28;20192;-71
2021/12/27 12:21:38;;;;;;;3.00;2.80;;;19.60;43.30;;;;;;5034424;28;20563;-72
2021/12/27 12:24:06;;;;;;;3.03;2.83;;;19.70;44.00;;;;;;5035510;28;20557;-69
2021/12/27 12:26:52;;;;;;;2.90;2.70;;;19.60;43.30;;;;;;5036049;28;20212;-69
2021/12/27 12:29:19;;;;;;;2.70;2.50;;;19.70;43.30;;;;;;5038042;28;20605;-70
2021/12/27 12:31:46;;;;;;;2.90;2.70;;;19.70;43.30;;;;;;5019674;28;20562;-70
2021/12/27 12:34:14;;;;;;;2.80;2.60;;;19.70;43.20;;;;;;5036982;28;20200;-69
2021/12/27 12:36:48;;;;;;;3.15;2.85;;;19.70;43.20;;;;;;5035063;28;20605;-72
2021/12/27 12:39:15;;;;;;;2.60;2.40;;;19.70;43.30;;;;;;5035292;28;20572;-70
2021/12/27 12:41:42;;;;;;;2.75;2.55;;;19.70;43.20;;;;;;5018868;28;20200;-72
2021/12/27 12:44:11;;;;;;;2.80;2.60;;;19.70;43.30;;;;;;5018432;28;20283;-70
2021/12/27 12:46:41;;;;;;;2.67;2.47;;;19.70;43.40;;;;;;5018849;28;20216;-69
2021/12/27 12:49:09;;;;;;;2.60;2.40;;;19.70;43.40;;;;;;5019030;28;20204;-71
2021/12/27 12:51:39;;;;;;;3.00;2.80;;;19.80;43.50;;;;;;5036310;28;20192;-70
2021/12/27 12:54:09;;;;;;;2.72;2.53;;;19.80;43.60;;;;;;5035203;28;20215;-70